sensor_id;sensor_type;location;lat;lon;timestamp;temperature;humidity
23079;DHT22;11707;50.830;4.364;2023-09-19T00:01:34;16.00;99.90
23079;DHT22;11707;50.830;4.364;2023-09-19T00:04:00;16.00;99.90
23079;DHT22;11707;50.830;4.364;2023-09-19T00:06:29;16.10;99.90
23079;DHT22;11707;50.830;4.364;2023-09-19T00:08:57;16.10;99.90
23079;DHT22;11707;50.830;4.364;2023-09-19T00:11:25;16.10;99.90
23079;DHT22;11707;50.830;4.364;2023-09-19T00:13:52;16.10;99.60
23079;DHT22;11707;50.830;4.364;2023-09-19T00:16:18;16.10;98.60
23079;DHT22;11707;50.830;4.364;2023-09-19T00:18:44;16.10;98.20
23079;DHT22;11707;50.830;4.364;2023-09-19T00:21:10;16.00;98.70
23079;DHT22;11707;50.830;4.364;2023-09-19T00:23:36;16.00;99.20
23079;DHT22;11707;50.830;4.364;2023-09-19T00:26:04;16.00;98.50
23079;DHT22;11707;50.830;4.364;2023-09-19T00:28:30;16.00;98.20
23079;DHT22;11707;50.830;4.364;2023-09-19T00:30:57;16.00;98.40
23079;DHT22;11707;50.830;4.364;2023-09-19T00:33:27;16.00;97.60
23079;DHT22;11707;50.830;4.364;2023-09-19T00:35:56;15.90;96.80
23079;DHT22;11707;50.830;4.364;2023-09-19T00:38:22;15.90;95.60
23079;DHT22;11707;50.830;4.364;2023-09-19T00:40:53;16.00;93.20
23079;DHT22;11707;50.830;4.364;2023-09-19T00:43:22;16.00;91.00
23079;DHT22;11707;50.830;4.364;2023-09-19T00:45:51;15.90;92.20
23079;DHT22;11707;50.830;4.364;2023-09-19T00:48:19;15.80;92.70
23079;DHT22;11707;50.830;4.364;2023-09-19T00:50:46;15.80;92.00
23079;DHT22;11707;50.830;4.364;2023-09-19T00:53:15;15.90;91.20
23079;DHT22;11707;50.830;4.364;2023-09-19T00:55:46;16.00;90.80
23079;DHT22;11707;50.830;4.364;2023-09-19T00:58:12;15.90;85.80
23079;DHT22;11707;50.830;4.364;2023-09-19T01:00:38;15.90;84.20
23079;DHT22;11707;50.830;4.364;2023-09-19T01:03:05;15.90;82.30
23079;DHT22;11707;50.830;4.364;2023-09-19T01:05:33;16.00;80.10
23079;DHT22;11707;50.830;4.364;2023-09-19T01:07:59;16.00;74.80
23079;DHT22;11707;50.830;4.364;2023-09-19T01:10:25;15.90;76.30
23079;DHT22;11707;50.830;4.364;2023-09-19T01:13:14;15.80;76.20
23079;DHT22;11707;50.830;4.364;2023-09-19T01:16:03;15.80;77.90
23079;DHT22;11707;50.830;4.364;2023-09-19T01:18:43;15.80;70.00
23079;DHT22;11707;50.830;4.364;2023-09-19T01:22:21;15.80;66.30
23079;DHT22;11707;50.830;4.364;2023-09-19T01:29:50;15.70;68.40
23079;DHT22;11707;50.830;4.364;2023-09-19T01:32:19;15.70;69.70
23079;DHT22;11707;50.830;4.364;2023-09-19T01:34:55;15.60;71.20
23079;DHT22;11707;50.830;4.364;2023-09-19T01:37:23;15.70;70.60
23079;DHT22;11707;50.830;4.364;2023-09-19T01:39:58;15.80;66.10
23079;DHT22;11707;50.830;4.364;2023-09-19T01:45:31;15.80;63.10
23079;DHT22;11707;50.830;4.364;2023-09-19T01:51:03;15.80;65.40
23079;DHT22;11707;50.830;4.364;2023-09-19T01:53:40;15.80;60.00
23079;DHT22;11707;50.830;4.364;2023-09-19T01:56:20;15.80;60.00
23079;DHT22;11707;50.830;4.364;2023-09-19T01:58:54;15.70;57.50
23079;DHT22;11707;50.830;4.364;2023-09-19T02:01:24;15.80;52.70
23079;DHT22;11707;50.830;4.364;2023-09-19T02:03:50;15.80;48.30
23079;DHT22;11707;50.830;4.364;2023-09-19T02:06:17;15.90;40.30
23079;DHT22;11707;50.830;4.364;2023-09-19T02:08:44;15.90;39.20
23079;DHT22;11707;50.830;4.364;2023-09-19T02:11:15;15.70;38.90
23079;DHT22;11707;50.830;4.364;2023-09-19T02:13:41;15.80;38.00
23079;DHT22;11707;50.830;4.364;2023-09-19T02:16:07;15.90;29.30
23079;DHT22;11707;50.830;4.364;2023-09-19T02:18:34;15.90;24.00
23079;DHT22;11707;50.830;4.364;2023-09-19T02:21:01;16.10;11.00
23079;DHT22;11707;50.830;4.364;2023-09-19T02:23:27;16.10;13.90
23079;DHT22;11707;50.830;4.364;2023-09-19T02:25:55;16.10;14.00
23079;DHT22;11707;50.830;4.364;2023-09-19T02:28:27;16.10;13.90
23079;DHT22;11707;50.830;4.364;2023-09-19T02:31:00;16.10;11.70
23079;DHT22;11707;50.830;4.364;2023-09-19T02:33:26;16.10;14.20
23079;DHT22;11707;50.830;4.364;2023-09-19T02:35:58;16.10;13.30
23079;DHT22;11707;50.830;4.364;2023-09-19T02:38:25;16.10;9.60
23079;DHT22;11707;50.830;4.364;2023-09-19T02:40:55;16.00;17.30
23079;DHT22;11707;50.830;4.364;2023-09-19T02:43:21;15.90;21.40
23079;DHT22;11707;50.830;4.364;2023-09-19T02:45:49;15.90;22.60
23079;DHT22;11707;50.830;4.364;2023-09-19T02:48:16;15.80;22.70
23079;DHT22;11707;50.830;4.364;2023-09-19T02:50:42;15.70;31.20
23079;DHT22;11707;50.830;4.364;2023-09-19T02:53:10;15.80;30.50
23079;DHT22;11707;50.830;4.364;2023-09-19T02:55:38;15.70;36.20
23079;DHT22;11707;50.830;4.364;2023-09-19T02:58:06;15.80;35.90
23079;DHT22;11707;50.830;4.364;2023-09-19T03:00:39;15.80;30.10
23079;DHT22;11707;50.830;4.364;2023-09-19T03:03:07;15.80;33.30
23079;DHT22;11707;50.830;4.364;2023-09-19T03:05:34;15.70;39.60
23079;DHT22;11707;50.830;4.364;2023-09-19T03:08:00;15.70;38.70
23079;DHT22;11707;50.830;4.364;2023-09-19T03:10:26;15.80;36.60
23079;DHT22;11707;50.830;4.364;2023-09-19T03:12:57;15.90;36.60
23079;DHT22;11707;50.830;4.364;2023-09-19T03:15:23;15.90;33.70
23079;DHT22;11707;50.830;4.364;2023-09-19T03:17:49;15.80;40.10
23079;DHT22;11707;50.830;4.364;2023-09-19T03:20:15;15.80;43.70
23079;DHT22;11707;50.830;4.364;2023-09-19T03:22:46;15.70;48.60
23079;DHT22;11707;50.830;4.364;2023-09-19T03:25:13;15.60;55.60
23079;DHT22;11707;50.830;4.364;2023-09-19T03:27:39;15.60;63.10
23079;DHT22;11707;50.830;4.364;2023-09-19T03:30:06;15.50;70.60
23079;DHT22;11707;50.830;4.364;2023-09-19T03:32:44;15.60;72.50
23079;DHT22;11707;50.830;4.364;2023-09-19T03:35:10;15.60;76.90
23079;DHT22;11707;50.830;4.364;2023-09-19T03:37:36;15.60;75.00
23079;DHT22;11707;50.830;4.364;2023-09-19T03:40:02;15.70;74.50
23079;DHT22;11707;50.830;4.364;2023-09-19T03:42:31;15.80;67.00
23079;DHT22;11707;50.830;4.364;2023-09-19T03:45:01;15.70;65.30
23079;DHT22;11707;50.830;4.364;2023-09-19T03:47:31;15.70;69.10
23079;DHT22;11707;50.830;4.364;2023-09-19T03:49:56;15.60;69.70
23079;DHT22;11707;50.830;4.364;2023-09-19T03:52:22;15.60;70.60
23079;DHT22;11707;50.830;4.364;2023-09-19T03:54:48;15.70;69.70
23079;DHT22;11707;50.830;4.364;2023-09-19T03:57:14;15.70;68.20
23079;DHT22;11707;50.830;4.364;2023-09-19T03:59:42;15.80;60.90
23079;DHT22;11707;50.830;4.364;2023-09-19T04:02:08;15.90;58.10
23079;DHT22;11707;50.830;4.364;2023-09-19T04:04:47;15.90;55.80
23079;DHT22;11707;50.830;4.364;2023-09-19T04:07:13;15.80;59.50
23079;DHT22;11707;50.830;4.364;2023-09-19T04:09:38;15.80;59.60
23079;DHT22;11707;50.830;4.364;2023-09-19T04:12:05;15.80;60.30
23079;DHT22;11707;50.830;4.364;2023-09-19T04:14:31;15.80;63.50
23079;DHT22;11707;50.830;4.364;2023-09-19T04:16:56;15.70;69.20
23079;DHT22;11707;50.830;4.364;2023-09-19T04:19:22;15.70;68.60
23079;DHT22;11707;50.830;4.364;2023-09-19T04:21:48;15.70;71.60
23079;DHT22;11707;50.830;4.364;2023-09-19T04:24:13;15.70;71.10
23079;DHT22;11707;50.830;4.364;2023-09-19T04:26:39;15.90;67.90
23079;DHT22;11707;50.830;4.364;2023-09-19T04:29:05;15.70;69.80
23079;DHT22;11707;50.830;4.364;2023-09-19T04:31:31;15.70;72.20
23079;DHT22;11707;50.830;4.364;2023-09-19T04:33:57;15.70;71.40
23079;DHT22;11707;50.830;4.364;2023-09-19T04:36:24;15.70;74.50
23079;DHT22;11707;50.830;4.364;2023-09-19T04:38:50;15.80;68.40
23079;DHT22;11707;50.830;4.364;2023-09-19T04:41:16;15.70;72.40
23079;DHT22;11707;50.830;4.364;2023-09-19T04:43:42;15.60;78.60
23079;DHT22;11707;50.830;4.364;2023-09-19T04:46:08;15.60;82.90
23079;DHT22;11707;50.830;4.364;2023-09-19T04:48:36;15.50;83.50
23079;DHT22;11707;50.830;4.364;2023-09-19T04:51:02;15.50;83.00
23079;DHT22;11707;50.830;4.364;2023-09-19T04:53:28;15.50;85.20
23079;DHT22;11707;50.830;4.364;2023-09-19T04:55:54;15.50;86.10
23079;DHT22;11707;50.830;4.364;2023-09-19T04:58:21;15.60;80.50
23079;DHT22;11707;50.830;4.364;2023-09-19T05:00:47;15.50;82.00
23079;DHT22;11707;50.830;4.364;2023-09-19T05:03:12;15.60;79.90
23079;DHT22;11707;50.830;4.364;2023-09-19T05:05:38;15.40;83.80
23079;DHT22;11707;50.830;4.364;2023-09-19T05:08:06;15.40;81.80
23079;DHT22;11707;50.830;4.364;2023-09-19T05:10:34;15.30;87.10
23079;DHT22;11707;50.830;4.364;2023-09-19T05:13:04;15.10;91.40
23079;DHT22;11707;50.830;4.364;2023-09-19T05:15:30;15.20;92.40
23079;DHT22;11707;50.830;4.364;2023-09-19T05:17:56;15.20;91.80
23079;DHT22;11707;50.830;4.364;2023-09-19T05:20:22;15.20;91.00
23079;DHT22;11707;50.830;4.364;2023-09-19T05:23:04;15.30;91.80
23079;DHT22;11707;50.830;4.364;2023-09-19T05:25:33;15.20;91.90
23079;DHT22;11707;50.830;4.364;2023-09-19T05:28:03;15.20;93.10
23079;DHT22;11707;50.830;4.364;2023-09-19T05:30:32;15.20;93.40
23079;DHT22;11707;50.830;4.364;2023-09-19T05:32:58;15.20;91.80
23079;DHT22;11707;50.830;4.364;2023-09-19T05:35:24;15.20;93.50
23079;DHT22;11707;50.830;4.364;2023-09-19T05:37:52;15.30;92.40
23079;DHT22;11707;50.830;4.364;2023-09-19T05:40:18;15.20;93.30
23079;DHT22;11707;50.830;4.364;2023-09-19T05:42:47;15.20;94.70
23079;DHT22;11707;50.830;4.364;2023-09-19T05:45:23;15.40;94.30
23079;DHT22;11707;50.830;4.364;2023-09-19T05:47:52;15.50;91.10
23079;DHT22;11707;50.830;4.364;2023-09-19T05:50:24;15.50;90.50
23079;DHT22;11707;50.830;4.364;2023-09-19T05:52:53;15.50;89.70
23079;DHT22;11707;50.830;4.364;2023-09-19T05:55:21;15.50;90.30
23079;DHT22;11707;50.830;4.364;2023-09-19T05:57:53;15.50;88.30
23079;DHT22;11707;50.830;4.364;2023-09-19T06:00:22;15.50;89.70
23079;DHT22;11707;50.830;4.364;2023-09-19T06:02:58;15.40;93.10
23079;DHT22;11707;50.830;4.364;2023-09-19T06:05:25;15.40;92.10
23079;DHT22;11707;50.830;4.364;2023-09-19T06:07:52;15.40;93.50
23079;DHT22;11707;50.830;4.364;2023-09-19T06:10:19;15.40;92.30
23079;DHT22;11707;50.830;4.364;2023-09-19T06:12:46;15.50;91.20
23079;DHT22;11707;50.830;4.364;2023-09-19T06:15:13;15.50;90.30
23079;DHT22;11707;50.830;4.364;2023-09-19T06:17:52;15.60;89.80
23079;DHT22;11707;50.830;4.364;2023-09-19T06:20:23;15.60;88.10
23079;DHT22;11707;50.830;4.364;2023-09-19T06:22:49;15.70;85.80
23079;DHT22;11707;50.830;4.364;2023-09-19T06:25:20;15.70;85.50
23079;DHT22;11707;50.830;4.364;2023-09-19T06:27:48;15.70;83.60
23079;DHT22;11707;50.830;4.364;2023-09-19T06:30:14;15.70;85.50
23079;DHT22;11707;50.830;4.364;2023-09-19T06:32:40;15.80;79.50
23079;DHT22;11707;50.830;4.364;2023-09-19T06:35:10;15.90;78.10
23079;DHT22;11707;50.830;4.364;2023-09-19T06:37:40;15.90;77.60
23079;DHT22;11707;50.830;4.364;2023-09-19T06:40:10;15.80;80.80
23079;DHT22;11707;50.830;4.364;2023-09-19T06:45:08;15.80;78.40
23079;DHT22;11707;50.830;4.364;2023-09-19T06:47:37;15.80;77.20
23079;DHT22;11707;50.830;4.364;2023-09-19T06:50:03;15.80;81.20
23079;DHT22;11707;50.830;4.364;2023-09-19T06:52:32;15.70;82.60
23079;DHT22;11707;50.830;4.364;2023-09-19T06:55:01;15.70;89.60
23079;DHT22;11707;50.830;4.364;2023-09-19T06:57:31;15.80;86.20
23079;DHT22;11707;50.830;4.364;2023-09-19T06:59:56;15.70;84.60
23079;DHT22;11707;50.830;4.364;2023-09-19T07:02:22;15.80;83.80
23079;DHT22;11707;50.830;4.364;2023-09-19T07:04:48;15.80;77.20
23079;DHT22;11707;50.830;4.364;2023-09-19T07:07:15;15.80;81.80
23079;DHT22;11707;50.830;4.364;2023-09-19T07:09:41;15.80;84.60
23079;DHT22;11707;50.830;4.364;2023-09-19T07:12:10;15.80;83.80
23079;DHT22;11707;50.830;4.364;2023-09-19T07:14:37;16.00;80.50
23079;DHT22;11707;50.830;4.364;2023-09-19T07:17:03;16.00;77.50
23079;DHT22;11707;50.830;4.364;2023-09-19T07:19:29;15.90;78.20
23079;DHT22;11707;50.830;4.364;2023-09-19T07:21:56;16.00;77.40
23079;DHT22;11707;50.830;4.364;2023-09-19T07:24:24;16.20;72.50
23079;DHT22;11707;50.830;4.364;2023-09-19T07:26:55;16.30;60.70
23079;DHT22;11707;50.830;4.364;2023-09-19T07:29:20;16.30;62.20
23079;DHT22;11707;50.830;4.364;2023-09-19T07:31:46;16.30;61.50
23079;DHT22;11707;50.830;4.364;2023-09-19T07:34:12;16.50;57.90
23079;DHT22;11707;50.830;4.364;2023-09-19T07:36:39;16.40;53.50
23079;DHT22;11707;50.830;4.364;2023-09-19T07:39:06;16.20;62.30
23079;DHT22;11707;50.830;4.364;2023-09-19T07:41:33;16.30;66.90
23079;DHT22;11707;50.830;4.364;2023-09-19T07:44:00;16.30;56.70
23079;DHT22;11707;50.830;4.364;2023-09-19T07:46:26;16.40;55.10
23079;DHT22;11707;50.830;4.364;2023-09-19T07:48:52;16.40;58.70
23079;DHT22;11707;50.830;4.364;2023-09-19T07:51:17;16.50;53.10
23079;DHT22;11707;50.830;4.364;2023-09-19T07:53:44;16.50;54.70
23079;DHT22;11707;50.830;4.364;2023-09-19T07:56:10;16.50;52.00
23079;DHT22;11707;50.830;4.364;2023-09-19T07:58:39;16.60;49.10
23079;DHT22;11707;50.830;4.364;2023-09-19T08:01:07;16.70;46.10
23079;DHT22;11707;50.830;4.364;2023-09-19T08:03:33;16.90;38.30
23079;DHT22;11707;50.830;4.364;2023-09-19T08:06:00;16.90;37.80
23079;DHT22;11707;50.830;4.364;2023-09-19T08:08:26;16.80;43.10
23079;DHT22;11707;50.830;4.364;2023-09-19T08:10:56;16.80;40.50
23079;DHT22;11707;50.830;4.364;2023-09-19T08:13:26;17.00;32.10
23079;DHT22;11707;50.830;4.364;2023-09-19T08:15:52;16.90;37.50
23079;DHT22;11707;50.830;4.364;2023-09-19T08:18:20;16.90;37.40
23079;DHT22;11707;50.830;4.364;2023-09-19T08:20:50;17.10;32.10
23079;DHT22;11707;50.830;4.364;2023-09-19T08:23:16;17.00;31.20
23079;DHT22;11707;50.830;4.364;2023-09-19T08:25:47;16.90;35.40
23079;DHT22;11707;50.830;4.364;2023-09-19T08:28:15;17.00;39.20
23079;DHT22;11707;50.830;4.364;2023-09-19T08:30:47;17.10;26.80
23079;DHT22;11707;50.830;4.364;2023-09-19T08:33:12;17.20;25.50
23079;DHT22;11707;50.830;4.364;2023-09-19T08:35:40;17.40;18.50
23079;DHT22;11707;50.830;4.364;2023-09-19T08:38:09;17.60;9.20
23079;DHT22;11707;50.830;4.364;2023-09-19T08:40:37;17.50;1.00
23079;DHT22;11707;50.830;4.364;2023-09-19T08:43:05;17.70;1.00
23079;DHT22;11707;50.830;4.364;2023-09-19T08:45:32;17.80;1.00
23079;DHT22;11707;50.830;4.364;2023-09-19T08:48:27;17.80;1.00
23079;DHT22;11707;50.830;4.364;2023-09-19T08:51:02;17.60;1.00
23079;DHT22;11707;50.830;4.364;2023-09-19T08:53:52;17.40;1.00
23079;DHT22;11707;50.830;4.364;2023-09-19T08:56:21;17.70;1.00
23079;DHT22;11707;50.830;4.364;2023-09-19T08:59:05;17.90;1.00
23079;DHT22;11707;50.830;4.364;2023-09-19T09:01:35;18.20;1.00
23079;DHT22;11707;50.830;4.364;2023-09-19T09:04:02;18.20;1.00
23079;DHT22;11707;50.830;4.364;2023-09-19T09:06:30;18.20;1.00
23079;DHT22;11707;50.830;4.364;2023-09-19T09:08:58;18.20;1.00
23079;DHT22;11707;50.830;4.364;2023-09-19T09:11:26;18.30;1.00
23079;DHT22;11707;50.830;4.364;2023-09-19T09:13:53;18.50;1.00
23079;DHT22;11707;50.830;4.364;2023-09-19T09:16:19;18.20;1.00
23079;DHT22;11707;50.830;4.364;2023-09-19T09:18:49;18.30;1.00
23079;DHT22;11707;50.830;4.364;2023-09-19T09:21:27;18.50;1.00
23079;DHT22;11707;50.830;4.364;2023-09-19T09:23:52;18.60;1.00
23079;DHT22;11707;50.830;4.364;2023-09-19T09:26:41;18.50;1.00
23079;DHT22;11707;50.830;4.364;2023-09-19T09:29:11;18.70;1.00
23079;DHT22;11707;50.830;4.364;2023-09-19T09:31:37;18.90;99.90
23079;DHT22;11707;50.830;4.364;2023-09-19T09:34:03;19.00;99.90
23079;DHT22;11707;50.830;4.364;2023-09-19T09:36:39;19.10;99.90
23079;DHT22;11707;50.830;4.364;2023-09-19T09:39:07;18.90;99.90
23079;DHT22;11707;50.830;4.364;2023-09-19T09:41:43;18.90;99.90
23079;DHT22;11707;50.830;4.364;2023-09-19T09:44:15;18.90;99.90
23079;DHT22;11707;50.830;4.364;2023-09-19T09:46:45;18.90;99.90
23079;DHT22;11707;50.830;4.364;2023-09-19T09:49:26;19.00;99.90
23079;DHT22;11707;50.830;4.364;2023-09-19T09:54:32;19.10;99.90
23079;DHT22;11707;50.830;4.364;2023-09-19T09:57:06;19.00;99.90
23079;DHT22;11707;50.830;4.364;2023-09-19T10:02:18;19.20;99.90
23079;DHT22;11707;50.830;4.364;2023-09-19T10:04:50;19.10;99.90
23079;DHT22;11707;50.830;4.364;2023-09-19T10:07:42;19.00;99.90
23079;DHT22;11707;50.830;4.364;2023-09-19T10:10:15;19.00;99.90
23079;DHT22;11707;50.830;4.364;2023-09-19T10:12:55;19.00;99.90
23079;DHT22;11707;50.830;4.364;2023-09-19T10:15:31;18.90;99.90
23079;DHT22;11707;50.830;4.364;2023-09-19T10:18:00;18.90;99.90
23079;DHT22;11707;50.830;4.364;2023-09-19T10:20:28;18.90;99.90
23079;DHT22;11707;50.830;4.364;2023-09-19T10:23:11;19.10;99.90
23079;DHT22;11707;50.830;4.364;2023-09-19T10:25:42;19.20;99.90
23079;DHT22;11707;50.830;4.364;2023-09-19T10:28:13;19.30;99.90
23079;DHT22;11707;50.830;4.364;2023-09-19T10:30:50;19.40;99.90
23079;DHT22;11707;50.830;4.364;2023-09-19T10:33:18;19.50;99.90
23079;DHT22;11707;50.830;4.364;2023-09-19T10:35:49;19.70;99.90
23079;DHT22;11707;50.830;4.364;2023-09-19T10:38:23;19.70;99.90
23079;DHT22;11707;50.830;4.364;2023-09-19T10:40:51;19.60;99.90
23079;DHT22;11707;50.830;4.364;2023-09-19T10:43:19;19.60;99.90
23079;DHT22;11707;50.830;4.364;2023-09-19T10:45:47;19.50;99.90
23079;DHT22;11707;50.830;4.364;2023-09-19T10:48:15;19.50;99.90
23079;DHT22;11707;50.830;4.364;2023-09-19T10:50:57;19.30;99.90
23079;DHT22;11707;50.830;4.364;2023-09-19T10:53:26;19.30;99.90
23079;DHT22;11707;50.830;4.364;2023-09-19T10:56:01;19.50;99.90
23079;DHT22;11707;50.830;4.364;2023-09-19T10:58:30;19.50;99.90
23079;DHT22;11707;50.830;4.364;2023-09-19T11:01:02;19.60;99.90
23079;DHT22;11707;50.830;4.364;2023-09-19T11:03:31;19.60;99.90
23079;DHT22;11707;50.830;4.364;2023-09-19T11:06:13;19.70;99.90
23079;DHT22;11707;50.830;4.364;2023-09-19T11:11:43;19.70;99.90
23079;DHT22;11707;50.830;4.364;2023-09-19T11:30:51;20.50;46.50
23079;DHT22;11707;50.830;4.364;2023-09-19T11:33:31;20.50;5.90
23079;DHT22;11707;50.830;4.364;2023-09-19T11:36:07;20.40;8.30
23079;DHT22;11707;50.830;4.364;2023-09-19T11:46:54;20.40;1.00
23079;DHT22;11707;50.830;4.364;2023-09-19T11:49:33;20.30;69.20
23079;DHT22;11707;50.830;4.364;2023-09-19T11:52:01;20.40;11.40
23079;DHT22;11707;50.830;4.364;2023-09-19T11:54:31;20.40;10.50
23079;DHT22;11707;50.830;4.364;2023-09-19T11:56:59;20.30;77.20
23079;DHT22;11707;50.830;4.364;2023-09-19T11:59:29;20.40;39.10
23079;DHT22;11707;50.830;4.364;2023-09-19T12:02:03;20.60;1.00
23079;DHT22;11707;50.830;4.364;2023-09-19T12:04:42;20.60;1.00
23079;DHT22;11707;50.830;4.364;2023-09-19T12:07:13;20.40;1.00
23079;DHT22;11707;50.830;4.364;2023-09-19T12:09:46;20.50;1.00
23079;DHT22;11707;50.830;4.364;2023-09-19T12:12:20;20.50;1.00
23079;DHT22;11707;50.830;4.364;2023-09-19T12:14:49;20.40;1.00
23079;DHT22;11707;50.830;4.364;2023-09-19T12:17:19;20.30;24.30
23079;DHT22;11707;50.830;4.364;2023-09-19T12:19:52;20.20;99.90
23079;DHT22;11707;50.830;4.364;2023-09-19T12:22:18;20.30;99.90
23079;DHT22;11707;50.830;4.364;2023-09-19T12:24:46;20.30;99.90
23079;DHT22;11707;50.830;4.364;2023-09-19T12:27:12;20.30;91.30
23079;DHT22;11707;50.830;4.364;2023-09-19T12:29:46;20.40;99.90
23079;DHT22;11707;50.830;4.364;2023-09-19T12:32:16;20.50;84.90
23079;DHT22;11707;50.830;4.364;2023-09-19T12:34:53;20.80;9.20
23079;DHT22;11707;50.830;4.364;2023-09-19T12:37:20;20.90;1.00
23079;DHT22;11707;50.830;4.364;2023-09-19T12:39:48;21.00;1.00
23079;DHT22;11707;50.830;4.364;2023-09-19T12:42:16;21.10;1.00
23079;DHT22;11707;50.830;4.364;2023-09-19T12:44:44;20.80;1.00
23079;DHT22;11707;50.830;4.364;2023-09-19T12:47:17;20.70;1.00
23079;DHT22;11707;50.830;4.364;2023-09-19T12:50:11;20.80;1.00
23079;DHT22;11707;50.830;4.364;2023-09-19T12:52:49;20.70;1.00
23079;DHT22;11707;50.830;4.364;2023-09-19T12:55:28;20.70;1.00
23079;DHT22;11707;50.830;4.364;2023-09-19T13:00:39;20.50;11.90
23079;DHT22;11707;50.830;4.364;2023-09-19T13:06:00;20.40;99.90
23079;DHT22;11707;50.830;4.364;2023-09-19T13:08:31;20.50;99.90
23079;DHT22;11707;50.830;4.364;2023-09-19T13:11:09;20.70;82.30
23079;DHT22;11707;50.830;4.364;2023-09-19T13:13:45;20.70;29.50
23079;DHT22;11707;50.830;4.364;2023-09-19T13:16:13;20.80;1.00
23079;DHT22;11707;50.830;4.364;2023-09-19T13:18:53;20.50;26.90
23079;DHT22;11707;50.830;4.364;2023-09-19T13:21:29;20.50;40.60
23079;DHT22;11707;50.830;4.364;2023-09-19T13:24:19;20.70;98.90
23079;DHT22;11707;50.830;4.364;2023-09-19T13:26:45;21.00;1.00
23079;DHT22;11707;50.830;4.364;2023-09-19T13:29:13;21.00;1.00
23079;DHT22;11707;50.830;4.364;2023-09-19T13:31:48;20.80;1.00
23079;DHT22;11707;50.830;4.364;2023-09-19T13:34:14;20.90;1.00
23079;DHT22;11707;50.830;4.364;2023-09-19T13:36:42;21.00;1.00
23079;DHT22;11707;50.830;4.364;2023-09-19T13:39:08;20.90;1.00
23079;DHT22;11707;50.830;4.364;2023-09-19T13:41:39;21.10;1.00
23079;DHT22;11707;50.830;4.364;2023-09-19T13:44:05;21.20;99.90
23079;DHT22;11707;50.830;4.364;2023-09-19T13:46:31;21.30;99.90
23079;DHT22;11707;50.830;4.364;2023-09-19T13:49:00;21.20;99.90
23079;DHT22;11707;50.830;4.364;2023-09-19T13:51:30;21.10;99.90
23079;DHT22;11707;50.830;4.364;2023-09-19T13:53:56;21.20;99.90
23079;DHT22;11707;50.830;4.364;2023-09-19T13:56:22;21.10;99.90
23079;DHT22;11707;50.830;4.364;2023-09-19T13:58:48;21.20;99.90
23079;DHT22;11707;50.830;4.364;2023-09-19T14:01:14;21.10;99.90
23079;DHT22;11707;50.830;4.364;2023-09-19T14:03:40;21.00;99.90
23079;DHT22;11707;50.830;4.364;2023-09-19T14:06:06;20.80;1.00
23079;DHT22;11707;50.830;4.364;2023-09-19T14:08:32;20.70;1.00
23079;DHT22;11707;50.830;4.364;2023-09-19T14:11:05;20.70;1.00
23079;DHT22;11707;50.830;4.364;2023-09-19T14:13:31;20.70;51.70
23079;DHT22;11707;50.830;4.364;2023-09-19T14:15:56;20.60;32.50
23079;DHT22;11707;50.830;4.364;2023-09-19T14:18:22;20.60;30.40
23079;DHT22;11707;50.830;4.364;2023-09-19T14:20:48;20.70;1.00
23079;DHT22;11707;50.830;4.364;2023-09-19T14:23:13;20.80;1.00
23079;DHT22;11707;50.830;4.364;2023-09-19T14:25:41;20.80;1.00
23079;DHT22;11707;50.830;4.364;2023-09-19T14:28:07;20.90;1.00
23079;DHT22;11707;50.830;4.364;2023-09-19T14:30:35;21.00;1.00
23079;DHT22;11707;50.830;4.364;2023-09-19T14:33:05;21.00;1.00
23079;DHT22;11707;50.830;4.364;2023-09-19T14:35:31;21.10;1.00
23079;DHT22;11707;50.830;4.364;2023-09-19T14:37:57;21.20;1.00
23079;DHT22;11707;50.830;4.364;2023-09-19T14:40:23;21.40;1.00
23079;DHT22;11707;50.830;4.364;2023-09-19T14:42:52;21.60;99.90
23079;DHT22;11707;50.830;4.364;2023-09-19T14:45:18;21.50;99.90
23079;DHT22;11707;50.830;4.364;2023-09-19T14:47:46;21.40;99.90
23079;DHT22;11707;50.830;4.364;2023-09-19T14:50:12;21.30;99.90
23079;DHT22;11707;50.830;4.364;2023-09-19T14:52:38;21.20;99.90
23079;DHT22;11707;50.830;4.364;2023-09-19T14:55:08;21.00;99.90
23079;DHT22;11707;50.830;4.364;2023-09-19T14:57:40;20.80;1.00
23079;DHT22;11707;50.830;4.364;2023-09-19T15:00:06;20.80;1.00
23079;DHT22;11707;50.830;4.364;2023-09-19T15:02:38;20.70;28.80
23079;DHT22;11707;50.830;4.364;2023-09-19T15:05:05;20.60;99.90
23079;DHT22;11707;50.830;4.364;2023-09-19T15:07:34;20.40;99.90
23079;DHT22;11707;50.830;4.364;2023-09-19T15:10:03;20.40;99.90
23079;DHT22;11707;50.830;4.364;2023-09-19T15:12:32;20.50;99.90
23079;DHT22;11707;50.830;4.364;2023-09-19T15:14:58;20.40;99.90
23079;DHT22;11707;50.830;4.364;2023-09-19T15:17:24;20.40;99.90
23079;DHT22;11707;50.830;4.364;2023-09-19T15:19:51;20.30;99.90
23079;DHT22;11707;50.830;4.364;2023-09-19T15:22:18;20.30;99.90
23079;DHT22;11707;50.830;4.364;2023-09-19T15:24:46;20.30;99.90
23079;DHT22;11707;50.830;4.364;2023-09-19T15:27:14;20.40;99.90
23079;DHT22;11707;50.830;4.364;2023-09-19T15:29:39;20.40;99.90
23079;DHT22;11707;50.830;4.364;2023-09-19T15:32:05;20.40;99.90
23079;DHT22;11707;50.830;4.364;2023-09-19T15:34:31;20.40;99.90
23079;DHT22;11707;50.830;4.364;2023-09-19T15:36:59;20.40;99.90
23079;DHT22;11707;50.830;4.364;2023-09-19T15:39:24;20.20;99.90
23079;DHT22;11707;50.830;4.364;2023-09-19T15:41:50;20.30;99.90
23079;DHT22;11707;50.830;4.364;2023-09-19T15:44:18;20.30;99.90
23079;DHT22;11707;50.830;4.364;2023-09-19T15:46:44;20.30;99.90
23079;DHT22;11707;50.830;4.364;2023-09-19T15:49:10;20.40;99.90
23079;DHT22;11707;50.830;4.364;2023-09-19T15:51:37;20.50;99.90
23079;DHT22;11707;50.830;4.364;2023-09-19T15:54:20;20.30;99.90
23079;DHT22;11707;50.830;4.364;2023-09-19T15:56:47;20.30;99.90
23079;DHT22;11707;50.830;4.364;2023-09-19T15:59:14;20.30;99.90
23079;DHT22;11707;50.830;4.364;2023-09-19T16:01:45;20.30;99.90
23079;DHT22;11707;50.830;4.364;2023-09-19T16:04:11;20.10;99.90
23079;DHT22;11707;50.830;4.364;2023-09-19T16:06:38;20.20;99.90
23079;DHT22;11707;50.830;4.364;2023-09-19T16:09:04;20.30;99.90
23079;DHT22;11707;50.830;4.364;2023-09-19T16:11:32;20.30;99.90
23079;DHT22;11707;50.830;4.364;2023-09-19T16:13:58;20.10;99.90
23079;DHT22;11707;50.830;4.364;2023-09-19T16:16:25;20.10;99.90
23079;DHT22;11707;50.830;4.364;2023-09-19T16:18:58;20.10;99.90
23079;DHT22;11707;50.830;4.364;2023-09-19T16:21:30;20.00;99.90
23079;DHT22;11707;50.830;4.364;2023-09-19T16:23:57;20.00;99.90
23079;DHT22;11707;50.830;4.364;2023-09-19T16:26:24;20.00;99.90
23079;DHT22;11707;50.830;4.364;2023-09-19T16:28:52;19.90;99.90
23079;DHT22;11707;50.830;4.364;2023-09-19T16:31:18;19.90;99.90
23079;DHT22;11707;50.830;4.364;2023-09-19T16:33:47;20.00;99.90
23079;DHT22;11707;50.830;4.364;2023-09-19T16:38:42;20.00;99.90
23079;DHT22;11707;50.830;4.364;2023-09-19T16:41:08;20.00;99.90